sensor_id;sensor_type;location;lat;lon;timestamp;P1;durP1;ratioP1;P2;durP2;ratioP2
15454;SDS011;21057;51.024;7.540;2023-04-03T00:01:14;22.80;;;21.50;;
15454;SDS011;21057;51.024;7.540;2023-04-03T00:03:50;23.70;;;21.90;;
15454;SDS011;21057;51.024;7.540;2023-04-03T00:06:17;23.03;;;21.50;;
15454;SDS011;21057;51.024;7.540;2023-04-03T00:08:45;24.30;;;22.90;;
15454;SDS011;21057;51.024;7.540;2023-04-03T00:11:12;23.30;;;21.60;;
15454;SDS011;21057;51.024;7.540;2023-04-03T00:13:40;23.17;;;21.77;;
15454;SDS011;21057;51.024;7.540;2023-04-03T00:16:07;22.90;;;21.50;;
15454;SDS011;21057;51.024;7.540;2023-04-03T00:18:35;22.90;;;21.50;;
15454;SDS011;21057;51.024;7.540;2023-04-03T00:21:02;23.43;;;21.93;;
15454;SDS011;21057;51.024;7.540;2023-04-03T00:23:30;23.50;;;22.20;;
15454;SDS011;21057;51.024;7.540;2023-04-03T00:25:58;23.50;;;21.80;;
15454;SDS011;21057;51.024;7.540;2023-04-03T00:28:26;23.53;;;22.07;;
15454;SDS011;21057;51.024;7.540;2023-04-03T00:30:53;22.63;;;21.33;;
15454;SDS011;21057;51.024;7.540;2023-04-03T00:33:22;22.77;;;21.40;;
15454;SDS011;21057;51.024;7.540;2023-04-03T00:36:04;22.37;;;20.97;;
15454;SDS011;21057;51.024;7.540;2023-04-03T00:38:32;23.20;;;21.80;;
15454;SDS011;21057;51.024;7.540;2023-04-03T00:41:01;22.00;;;20.70;;
15454;SDS011;21057;51.024;7.540;2023-04-03T00:43:28;22.77;;;21.37;;
15454;SDS011;21057;51.024;7.540;2023-04-03T00:48:27;22.13;;;20.83;;
15454;SDS011;21057;51.024;7.540;2023-04-03T00:50:59;21.83;;;20.53;;
15454;SDS011;21057;51.024;7.540;2023-04-03T00:53:33;22.27;;;20.97;;
15454;SDS011;21057;51.024;7.540;2023-04-03T00:56:06;21.77;;;20.47;;
15454;SDS011;21057;51.024;7.540;2023-04-03T00:58:37;21.80;;;20.50;;
15454;SDS011;21057;51.024;7.540;2023-04-03T01:01:10;23.20;;;21.80;;
15454;SDS011;21057;51.024;7.540;2023-04-03T01:03:47;21.67;;;20.47;;
15454;SDS011;21057;51.024;7.540;2023-04-03T01:06:14;21.87;;;20.37;;
15454;SDS011;21057;51.024;7.540;2023-04-03T01:08:43;22.03;;;20.63;;
15454;SDS011;21057;51.024;7.540;2023-04-03T01:11:13;22.17;;;20.87;;
15454;SDS011;21057;51.024;7.540;2023-04-03T01:13:50;22.27;;;20.87;;
15454;SDS011;21057;51.024;7.540;2023-04-03T01:16:17;21.77;;;20.47;;
15454;SDS011;21057;51.024;7.540;2023-04-03T01:18:45;21.90;;;20.60;;
15454;SDS011;21057;51.024;7.540;2023-04-03T01:24:31;22.87;;;21.47;;
15454;SDS011;21057;51.024;7.540;2023-04-03T01:27:08;22.00;;;20.70;;
15454;SDS011;21057;51.024;7.540;2023-04-03T01:29:37;21.90;;;20.50;;
15454;SDS011;21057;51.024;7.540;2023-04-03T01:32:06;22.17;;;20.87;;
15454;SDS011;21057;51.024;7.540;2023-04-03T01:34:33;23.60;;;21.50;;
15454;SDS011;21057;51.024;7.540;2023-04-03T01:36:59;22.27;;;20.97;;
15454;SDS011;21057;51.024;7.540;2023-04-03T01:39:28;22.20;;;20.97;;
15454;SDS011;21057;51.024;7.540;2023-04-03T01:41:55;22.53;;;21.13;;
15454;SDS011;21057;51.024;7.540;2023-04-03T01:44:24;21.87;;;20.67;;
15454;SDS011;21057;51.024;7.540;2023-04-03T01:46:51;22.37;;;20.97;;
15454;SDS011;21057;51.024;7.540;2023-04-03T01:49:31;22.47;;;21.17;;
15454;SDS011;21057;51.024;7.540;2023-04-03T01:51:58;22.30;;;21.00;;
15454;SDS011;21057;51.024;7.540;2023-04-03T01:54:26;21.77;;;20.53;;
15454;SDS011;21057;51.024;7.540;2023-04-03T01:56:53;22.10;;;20.80;;
15454;SDS011;21057;51.024;7.540;2023-04-03T01:59:19;21.80;;;20.60;;
15454;SDS011;21057;51.024;7.540;2023-04-03T02:01:47;21.73;;;20.43;;
15454;SDS011;21057;51.024;7.540;2023-04-03T02:04:15;22.30;;;21.00;;
15454;SDS011;21057;51.024;7.540;2023-04-03T02:06:43;22.10;;;20.80;;
15454;SDS011;21057;51.024;7.540;2023-04-03T02:09:10;21.80;;;20.50;;
15454;SDS011;21057;51.024;7.540;2023-04-03T02:11:45;22.30;;;21.00;;
15454;SDS011;21057;51.024;7.540;2023-04-03T02:14:12;21.30;;;20.10;;
15454;SDS011;21057;51.024;7.540;2023-04-03T02:16:39;22.97;;;21.30;;
15454;SDS011;21057;51.024;7.540;2023-04-03T02:19:06;23.00;;;21.50;;
15454;SDS011;21057;51.024;7.540;2023-04-03T02:21:35;23.07;;;21.67;;
15454;SDS011;21057;51.024;7.540;2023-04-03T02:24:03;22.47;;;21.17;;
15454;SDS011;21057;51.024;7.540;2023-04-03T02:26:30;23.30;;;21.87;;
15454;SDS011;21057;51.024;7.540;2023-04-03T02:29:08;22.50;;;21.10;;
15454;SDS011;21057;51.024;7.540;2023-04-03T02:31:43;22.83;;;21.43;;
15454;SDS011;21057;51.024;7.540;2023-04-03T02:34:10;22.17;;;20.87;;
15454;SDS011;21057;51.024;7.540;2023-04-03T02:36:37;23.87;;;22.27;;
15454;SDS011;21057;51.024;7.540;2023-04-03T02:39:07;22.63;;;21.33;;
15454;SDS011;21057;51.024;7.540;2023-04-03T02:41:34;22.83;;;21.53;;
15454;SDS011;21057;51.024;7.540;2023-04-03T02:44:01;23.40;;;22.00;;
15454;SDS011;21057;51.024;7.540;2023-04-03T02:46:28;23.73;;;22.33;;
15454;SDS011;21057;51.024;7.540;2023-04-03T02:48:56;24.07;;;22.67;;
15454;SDS011;21057;51.024;7.540;2023-04-03T02:51:34;23.80;;;22.40;;
15454;SDS011;21057;51.024;7.540;2023-04-03T02:54:01;23.70;;;22.30;;
15454;SDS011;21057;51.024;7.540;2023-04-03T02:56:29;22.70;;;21.40;;
15454;SDS011;21057;51.024;7.540;2023-04-03T02:59:11;23.27;;;21.77;;
15454;SDS011;21057;51.024;7.540;2023-04-03T03:04:23;22.40;;;21.10;;
15454;SDS011;21057;51.024;7.540;2023-04-03T03:06:50;23.40;;;22.10;;
15454;SDS011;21057;51.024;7.540;2023-04-03T03:09:19;23.03;;;21.67;;
15454;SDS011;21057;51.024;7.540;2023-04-03T03:11:55;22.23;;;20.93;;
15454;SDS011;21057;51.024;7.540;2023-04-03T03:14:22;23.27;;;21.67;;
15454;SDS011;21057;51.024;7.540;2023-04-03T03:16:49;22.50;;;21.20;;
15454;SDS011;21057;51.024;7.540;2023-04-03T03:19:15;22.80;;;21.50;;
15454;SDS011;21057;51.024;7.540;2023-04-03T03:21:42;22.60;;;21.20;;
15454;SDS011;21057;51.024;7.540;2023-04-03T03:24:09;22.80;;;21.50;;
15454;SDS011;21057;51.024;7.540;2023-04-03T03:26:37;23.50;;;22.10;;
15454;SDS011;21057;51.024;7.540;2023-04-03T03:29:05;22.80;;;21.50;;
15454;SDS011;21057;51.024;7.540;2023-04-03T03:31:33;22.90;;;21.60;;
15454;SDS011;21057;51.024;7.540;2023-04-03T03:34:08;23.17;;;21.77;;
15454;SDS011;21057;51.024;7.540;2023-04-03T03:36:35;23.33;;;21.90;;
15454;SDS011;21057;51.024;7.540;2023-04-03T03:39:06;23.13;;;21.80;;
15454;SDS011;21057;51.024;7.540;2023-04-03T03:41:34;24.13;;;22.57;;
15454;SDS011;21057;51.024;7.540;2023-04-03T03:44:01;23.63;;;22.23;;
15454;SDS011;21057;51.024;7.540;2023-04-03T03:46:35;23.07;;;21.77;;
15454;SDS011;21057;51.024;7.540;2023-04-03T03:49:06;23.50;;;22.10;;
15454;SDS011;21057;51.024;7.540;2023-04-03T03:51:33;23.87;;;22.47;;
15454;SDS011;21057;51.024;7.540;2023-04-03T03:54:00;24.27;;;22.87;;
15454;SDS011;21057;51.024;7.540;2023-04-03T03:56:27;25.50;;;22.80;;
15454;SDS011;21057;51.024;7.540;2023-04-03T03:58:55;24.80;;;23.40;;
15454;SDS011;21057;51.024;7.540;2023-04-03T04:01:22;24.37;;;22.97;;
15454;SDS011;21057;51.024;7.540;2023-04-03T04:03:51;24.60;;;23.20;;
15454;SDS011;21057;51.024;7.540;2023-04-03T04:06:18;25.57;;;23.97;;
15454;SDS011;21057;51.024;7.540;2023-04-03T04:08:46;23.90;;;22.40;;
15454;SDS011;21057;51.024;7.540;2023-04-03T04:11:15;25.03;;;23.33;;
15454;SDS011;21057;51.024;7.540;2023-04-03T04:13:49;24.40;;;22.97;;
15454;SDS011;21057;51.024;7.540;2023-04-03T04:16:16;23.70;;;22.30;;
15454;SDS011;21057;51.024;7.540;2023-04-03T04:18:43;23.07;;;21.67;;
15454;SDS011;21057;51.024;7.540;2023-04-03T04:21:11;24.17;;;22.33;;
15454;SDS011;21057;51.024;7.540;2023-04-03T04:23:45;23.20;;;21.80;;
15454;SDS011;21057;51.024;7.540;2023-04-03T04:26:12;23.50;;;22.10;;
15454;SDS011;21057;51.024;7.540;2023-04-03T04:28:39;23.00;;;21.60;;
15454;SDS011;21057;51.024;7.540;2023-04-03T04:31:05;23.67;;;22.27;;
15454;SDS011;21057;51.024;7.540;2023-04-03T04:33:32;23.23;;;21.83;;
15454;SDS011;21057;51.024;7.540;2023-04-03T04:35:59;26.77;;;24.50;;
15454;SDS011;21057;51.024;7.540;2023-04-03T04:40:58;25.30;;;23.90;;
15454;SDS011;21057;51.024;7.540;2023-04-03T04:43:25;24.67;;;23.27;;
15454;SDS011;21057;51.024;7.540;2023-04-03T04:46:02;23.93;;;22.33;;
15454;SDS011;21057;51.024;7.540;2023-04-03T04:48:43;23.00;;;21.60;;
15454;SDS011;21057;51.024;7.540;2023-04-03T04:51:23;22.93;;;21.53;;
15454;SDS011;21057;51.024;7.540;2023-04-03T04:53:57;22.77;;;21.27;;
15454;SDS011;21057;51.024;7.540;2023-04-03T04:56:23;24.23;;;22.83;;
15454;SDS011;21057;51.024;7.540;2023-04-03T04:58:51;25.50;;;24.00;;
15454;SDS011;21057;51.024;7.540;2023-04-03T05:01:18;25.10;;;23.60;;
15454;SDS011;21057;51.024;7.540;2023-04-03T05:03:47;24.37;;;22.97;;
15454;SDS011;21057;51.024;7.540;2023-04-03T05:06:14;23.07;;;21.67;;
15454;SDS011;21057;51.024;7.540;2023-04-03T05:08:40;24.10;;;22.60;;
15454;SDS011;21057;51.024;7.540;2023-04-03T05:11:09;24.07;;;22.67;;
15454;SDS011;21057;51.024;7.540;2023-04-03T05:13:35;24.37;;;22.40;;
15454;SDS011;21057;51.024;7.540;2023-04-03T05:16:04;23.40;;;21.83;;
15454;SDS011;21057;51.024;7.540;2023-04-03T05:18:31;23.67;;;22.00;;
15454;SDS011;21057;51.024;7.540;2023-04-03T05:20:58;24.27;;;22.53;;
15454;SDS011;21057;51.024;7.540;2023-04-03T05:23:25;23.30;;;21.80;;
15454;SDS011;21057;51.024;7.540;2023-04-03T05:25:52;24.43;;;22.93;;
15454;SDS011;21057;51.024;7.540;2023-04-03T05:28:21;25.27;;;23.60;;
15454;SDS011;21057;51.024;7.540;2023-04-03T05:30:52;25.17;;;23.27;;
15454;SDS011;21057;51.024;7.540;2023-04-03T05:33:20;24.73;;;23.23;;
15454;SDS011;21057;51.024;7.540;2023-04-03T05:35:47;24.60;;;23.00;;
15454;SDS011;21057;51.024;7.540;2023-04-03T05:38:16;24.97;;;23.20;;
15454;SDS011;21057;51.024;7.540;2023-04-03T05:40:43;24.57;;;23.07;;
15454;SDS011;21057;51.024;7.540;2023-04-03T05:43:10;24.03;;;22.63;;
15454;SDS011;21057;51.024;7.540;2023-04-03T05:45:44;24.20;;;22.70;;
15454;SDS011;21057;51.024;7.540;2023-04-03T05:48:11;23.50;;;22.10;;
15454;SDS011;21057;51.024;7.540;2023-04-03T05:50:38;23.13;;;21.70;;
15454;SDS011;21057;51.024;7.540;2023-04-03T05:53:07;23.10;;;21.60;;
15454;SDS011;21057;51.024;7.540;2023-04-03T05:55:40;24.33;;;22.83;;
15454;SDS011;21057;51.024;7.540;2023-04-03T05:58:21;24.00;;;22.40;;
15454;SDS011;21057;51.024;7.540;2023-04-03T06:00:49;23.50;;;22.10;;
15454;SDS011;21057;51.024;7.540;2023-04-03T06:03:16;24.03;;;22.53;;
15454;SDS011;21057;51.024;7.540;2023-04-03T06:05:43;23.40;;;22.00;;
15454;SDS011;21057;51.024;7.540;2023-04-03T06:08:11;24.40;;;22.60;;
15454;SDS011;21057;51.024;7.540;2023-04-03T06:10:47;24.00;;;22.50;;
15454;SDS011;21057;51.024;7.540;2023-04-03T06:13:15;24.80;;;22.87;;
15454;SDS011;21057;51.024;7.540;2023-04-03T06:15:45;24.10;;;22.60;;
15454;SDS011;21057;51.024;7.540;2023-04-03T06:20:59;24.00;;;22.50;;
15454;SDS011;21057;51.024;7.540;2023-04-03T06:23:27;22.90;;;21.50;;
15454;SDS011;21057;51.024;7.540;2023-04-03T06:25:54;24.47;;;22.40;;
15454;SDS011;21057;51.024;7.540;2023-04-03T06:28:22;24.50;;;22.80;;
15454;SDS011;21057;51.024;7.540;2023-04-03T06:30:49;23.93;;;22.23;;
15454;SDS011;21057;51.024;7.540;2023-04-03T06:33:16;23.93;;;22.43;;
15454;SDS011;21057;51.024;7.540;2023-04-03T06:35:44;23.70;;;22.20;;
15454;SDS011;21057;51.024;7.540;2023-04-03T06:38:11;25.10;;;23.40;;
15454;SDS011;21057;51.024;7.540;2023-04-03T06:40:41;25.13;;;23.43;;
15454;SDS011;21057;51.024;7.540;2023-04-03T06:45:46;22.77;;;21.27;;
15454;SDS011;21057;51.024;7.540;2023-04-03T06:48:19;24.40;;;22.90;;
15454;SDS011;21057;51.024;7.540;2023-04-03T06:51:01;23.40;;;21.90;;
15454;SDS011;21057;51.024;7.540;2023-04-03T06:53:38;23.57;;;22.07;;
15454;SDS011;21057;51.024;7.540;2023-04-03T06:56:05;23.73;;;22.17;;
15454;SDS011;21057;51.024;7.540;2023-04-03T06:58:43;23.10;;;21.60;;
15454;SDS011;21057;51.024;7.540;2023-04-03T07:01:14;22.83;;;21.43;;
15454;SDS011;21057;51.024;7.540;2023-04-03T07:03:44;23.40;;;21.53;;
15454;SDS011;21057;51.024;7.540;2023-04-03T07:06:15;22.33;;;20.93;;
15454;SDS011;21057;51.024;7.540;2023-04-03T07:08:55;22.93;;;21.33;;
15454;SDS011;21057;51.024;7.540;2023-04-03T07:11:23;22.70;;;21.07;;
15454;SDS011;21057;51.024;7.540;2023-04-03T07:13:58;22.90;;;21.17;;
15454;SDS011;21057;51.024;7.540;2023-04-03T07:16:25;23.77;;;22.07;;
15454;SDS011;21057;51.024;7.540;2023-04-03T07:18:58;23.80;;;21.90;;
15454;SDS011;21057;51.024;7.540;2023-04-03T07:21:37;24.20;;;22.50;;
15454;SDS011;21057;51.024;7.540;2023-04-03T07:24:25;24.20;;;22.60;;
15454;SDS011;21057;51.024;7.540;2023-04-03T07:27:03;22.93;;;21.43;;
15454;SDS011;21057;51.024;7.540;2023-04-03T07:29:31;23.37;;;21.77;;
15454;SDS011;21057;51.024;7.540;2023-04-03T07:32:06;22.40;;;20.90;;
15454;SDS011;21057;51.024;7.540;2023-04-03T07:34:49;22.80;;;21.30;;
15454;SDS011;21057;51.024;7.540;2023-04-03T07:37:17;23.07;;;21.23;;
15454;SDS011;21057;51.024;7.540;2023-04-03T07:39:55;23.37;;;21.77;;
15454;SDS011;21057;51.024;7.540;2023-04-03T07:42:24;23.20;;;21.60;;
15454;SDS011;21057;51.024;7.540;2023-04-03T07:44:53;24.07;;;21.93;;
15454;SDS011;21057;51.024;7.540;2023-04-03T07:47:30;23.63;;;22.03;;
15454;SDS011;21057;51.024;7.540;2023-04-03T07:49:57;22.40;;;20.90;;
15454;SDS011;21057;51.024;7.540;2023-04-03T07:52:26;22.60;;;21.10;;
15454;SDS011;21057;51.024;7.540;2023-04-03T07:54:58;22.37;;;20.77;;
15454;SDS011;21057;51.024;7.540;2023-04-03T07:57:25;23.17;;;21.30;;
15454;SDS011;21057;51.024;7.540;2023-04-03T07:59:52;23.07;;;21.47;;
15454;SDS011;21057;51.024;7.540;2023-04-03T08:02:20;21.77;;;20.27;;
15454;SDS011;21057;51.024;7.540;2023-04-03T08:04:48;23.30;;;21.67;;
15454;SDS011;21057;51.024;7.540;2023-04-03T08:07:15;23.57;;;22.00;;
15454;SDS011;21057;51.024;7.540;2023-04-03T08:09:45;23.47;;;21.77;;
15454;SDS011;21057;51.024;7.540;2023-04-03T08:12:16;23.17;;;21.70;;
15454;SDS011;21057;51.024;7.540;2023-04-03T08:17:20;21.50;;;20.10;;
15454;SDS011;21057;51.024;7.540;2023-04-03T08:19:47;22.30;;;20.90;;
15454;SDS011;21057;51.024;7.540;2023-04-03T08:22:14;22.07;;;20.67;;
15454;SDS011;21057;51.024;7.540;2023-04-03T08:24:41;22.77;;;21.27;;
15454;SDS011;21057;51.024;7.540;2023-04-03T08:27:09;22.50;;;20.80;;
15454;SDS011;21057;51.024;7.540;2023-04-03T08:29:36;22.20;;;20.80;;
15454;SDS011;21057;51.024;7.540;2023-04-03T08:32:03;21.63;;;20.13;;
15454;SDS011;21057;51.024;7.540;2023-04-03T08:34:31;21.47;;;20.07;;
15454;SDS011;21057;51.024;7.540;2023-04-03T08:37:17;20.80;;;19.50;;
15454;SDS011;21057;51.024;7.540;2023-04-03T08:39:44;20.83;;;19.53;;
15454;SDS011;21057;51.024;7.540;2023-04-03T08:42:16;21.43;;;19.70;;
15454;SDS011;21057;51.024;7.540;2023-04-03T08:44:57;21.50;;;19.90;;
15454;SDS011;21057;51.024;7.540;2023-04-03T08:50:33;20.80;;;19.50;;
15454;SDS011;21057;51.024;7.540;2023-04-03T08:55:42;21.00;;;19.60;;
15454;SDS011;21057;51.024;7.540;2023-04-03T08:58:14;20.83;;;19.50;;
15454;SDS011;21057;51.024;7.540;2023-04-03T09:00:54;21.10;;;19.60;;
15454;SDS011;21057;51.024;7.540;2023-04-03T09:03:40;20.60;;;19.20;;
15454;SDS011;21057;51.024;7.540;2023-04-03T09:06:21;20.63;;;19.33;;
15454;SDS011;21057;51.024;7.540;2023-04-03T09:09:02;21.27;;;19.97;;
15454;SDS011;21057;51.024;7.540;2023-04-03T09:11:42;20.80;;;19.40;;
15454;SDS011;21057;51.024;7.540;2023-04-03T09:14:21;21.10;;;19.60;;
15454;SDS011;21057;51.024;7.540;2023-04-03T09:16:59;21.03;;;19.67;;
15454;SDS011;21057;51.024;7.540;2023-04-03T09:19:32;21.03;;;19.73;;
15454;SDS011;21057;51.024;7.540;2023-04-03T09:22:11;21.00;;;19.60;;
15454;SDS011;21057;51.024;7.540;2023-04-03T09:24:43;21.70;;;19.90;;
15454;SDS011;21057;51.024;7.540;2023-04-03T09:27:22;20.80;;;19.50;;
15454;SDS011;21057;51.024;7.540;2023-04-03T09:30:00;20.97;;;19.43;;
15454;SDS011;21057;51.024;7.540;2023-04-03T09:32:35;20.33;;;19.07;;
15454;SDS011;21057;51.024;7.540;2023-04-03T09:35:04;20.43;;;19.13;;
15454;SDS011;21057;51.024;7.540;2023-04-03T09:37:45;20.30;;;19.00;;
15454;SDS011;21057;51.024;7.540;2023-04-03T09:45:55;20.67;;;19.10;;
15454;SDS011;21057;51.024;7.540;2023-04-03T09:48:43;20.73;;;19.40;;
15454;SDS011;21057;51.024;7.540;2023-04-03T09:51:26;20.57;;;19.10;;
15454;SDS011;21057;51.024;7.540;2023-04-03T09:53:55;21.10;;;19.60;;
15454;SDS011;21057;51.024;7.540;2023-04-03T09:59:06;22.20;;;20.70;;
15454;SDS011;21057;51.024;7.540;2023-04-03T10:01:41;20.67;;;19.27;;
15454;SDS011;21057;51.024;7.540;2023-04-03T10:04:24;20.43;;;19.13;;
15454;SDS011;21057;51.024;7.540;2023-04-03T10:06:52;20.53;;;19.23;;
15454;SDS011;21057;51.024;7.540;2023-04-03T10:09:26;20.17;;;18.97;;
15454;SDS011;21057;51.024;7.540;2023-04-03T10:12:00;20.20;;;19.00;;
15454;SDS011;21057;51.024;7.540;2023-04-03T10:14:36;21.00;;;19.70;;
15454;SDS011;21057;51.024;7.540;2023-04-03T10:17:16;20.67;;;19.37;;
15454;SDS011;21057;51.024;7.540;2023-04-03T10:19:50;20.93;;;19.63;;
15454;SDS011;21057;51.024;7.540;2023-04-03T10:22:27;21.17;;;19.60;;
15454;SDS011;21057;51.024;7.540;2023-04-03T10:25:02;21.50;;;19.83;;
15454;SDS011;21057;51.024;7.540;2023-04-03T10:27:42;21.20;;;19.90;;
15454;SDS011;21057;51.024;7.540;2023-04-03T10:30:32;21.07;;;19.63;;
15454;SDS011;21057;51.024;7.540;2023-04-03T10:33:13;21.00;;;19.60;;
15454;SDS011;21057;51.024;7.540;2023-04-03T10:35:55;21.50;;;20.10;;
15454;SDS011;21057;51.024;7.540;2023-04-03T10:38:36;20.50;;;19.10;;
15454;SDS011;21057;51.024;7.540;2023-04-03T10:41:10;20.63;;;19.17;;
15454;SDS011;21057;51.024;7.540;2023-04-03T10:43:44;20.37;;;18.97;;
15454;SDS011;21057;51.024;7.540;2023-04-03T10:46:19;21.07;;;19.67;;
15454;SDS011;21057;51.024;7.540;2023-04-03T10:51:39;20.00;;;18.80;;
15454;SDS011;21057;51.024;7.540;2023-04-03T10:54:11;21.00;;;19.70;;
15454;SDS011;21057;51.024;7.540;2023-04-03T10:56:39;21.10;;;19.80;;
15454;SDS011;21057;51.024;7.540;2023-04-03T10:59:19;21.73;;;20.13;;
15454;SDS011;21057;51.024;7.540;2023-04-03T11:01:59;21.30;;;19.90;;
15454;SDS011;21057;51.024;7.540;2023-04-03T11:04:34;19.70;;;18.40;;
15454;SDS011;21057;51.024;7.540;2023-04-03T11:07:04;20.00;;;18.70;;
15454;SDS011;21057;51.024;7.540;2023-04-03T11:09:39;20.67;;;19.37;;
15454;SDS011;21057;51.024;7.540;2023-04-03T11:12:11;21.10;;;19.77;;
15454;SDS011;21057;51.024;7.540;2023-04-03T11:14:43;20.80;;;19.47;;
15454;SDS011;21057;51.024;7.540;2023-04-03T11:17:15;21.30;;;20.00;;
15454;SDS011;21057;51.024;7.540;2023-04-03T11:19:56;21.00;;;19.70;;
15454;SDS011;21057;51.024;7.540;2023-04-03T11:22:29;20.23;;;18.90;;
15454;SDS011;21057;51.024;7.540;2023-04-03T11:25:18;20.37;;;19.07;;
15454;SDS011;21057;51.024;7.540;2023-04-03T11:27:57;19.83;;;18.63;;
15454;SDS011;21057;51.024;7.540;2023-04-03T11:30:27;21.03;;;19.63;;
15454;SDS011;21057;51.024;7.540;2023-04-03T11:36:06;21.03;;;19.73;;
15454;SDS011;21057;51.024;7.540;2023-04-03T11:38:36;21.10;;;19.80;;
15454;SDS011;21057;51.024;7.540;2023-04-03T11:41:07;21.77;;;20.33;;
15454;SDS011;21057;51.024;7.540;2023-04-03T11:58:29;20.73;;;19.33;;
15454;SDS011;21057;51.024;7.540;2023-04-03T12:01:06;21.67;;;20.20;;
15454;SDS011;21057;51.024;7.540;2023-04-03T12:24:26;20.90;;;19.50;;
15454;SDS011;21057;51.024;7.540;2023-04-03T12:27:07;21.03;;;19.63;;
15454;SDS011;21057;51.024;7.540;2023-04-03T12:29:59;21.73;;;20.23;;
15454;SDS011;21057;51.024;7.540;2023-04-03T12:32:40;22.30;;;20.90;;
15454;SDS011;21057;51.024;7.540;2023-04-03T12:35:21;21.57;;;20.17;;
15454;SDS011;21057;51.024;7.540;2023-04-03T12:38:02;21.33;;;19.97;;
15454;SDS011;21057;51.024;7.540;2023-04-03T12:41:02;22.50;;;20.90;;
15454;SDS011;21057;51.024;7.540;2023-04-03T12:43:43;20.87;;;19.57;;
15454;SDS011;21057;51.024;7.540;2023-04-03T12:46:23;20.13;;;18.83;;
15454;SDS011;21057;51.024;7.540;2023-04-03T12:48:53;20.07;;;18.67;;
15454;SDS011;21057;51.024;7.540;2023-04-03T12:53:58;20.80;;;19.20;;
15454;SDS011;21057;51.024;7.540;2023-04-03T12:56:29;21.73;;;19.50;;
15454;SDS011;21057;51.024;7.540;2023-04-03T12:59:12;20.50;;;19.20;;
15454;SDS011;21057;51.024;7.540;2023-04-03T13:01:42;20.10;;;18.80;;
15454;SDS011;21057;51.024;7.540;2023-04-03T13:04:09;22.10;;;19.63;;
15454;SDS011;21057;51.024;7.540;2023-04-03T13:09:18;21.00;;;19.60;;
15454;SDS011;21057;51.024;7.540;2023-04-03T13:11:48;20.47;;;19.07;;
15454;SDS011;21057;51.024;7.540;2023-04-03T13:14:17;20.07;;;18.77;;
15454;SDS011;21057;51.024;7.540;2023-04-03T13:16:53;20.87;;;19.47;;
15454;SDS011;21057;51.024;7.540;2023-04-03T13:19:22;20.20;;;18.90;;
15454;SDS011;21057;51.024;7.540;2023-04-03T13:21:57;21.50;;;19.90;;
15454;SDS011;21057;51.024;7.540;2023-04-03T13:24:26;20.90;;;19.60;;
15454;SDS011;21057;51.024;7.540;2023-04-03T13:26:55;21.80;;;20.23;;
15454;SDS011;21057;51.024;7.540;2023-04-03T13:29:24;21.50;;;20.00;;
15454;SDS011;21057;51.024;7.540;2023-04-03T13:31:55;20.90;;;19.50;;
15454;SDS011;21057;51.024;7.540;2023-04-03T13:34:23;20.20;;;18.90;;
15454;SDS011;21057;51.024;7.540;2023-04-03T13:36:56;20.53;;;19.13;;
15454;SDS011;21057;51.024;7.540;2023-04-03T13:39:25;21.93;;;20.33;;
15454;SDS011;21057;51.024;7.540;2023-04-03T13:41:54;21.45;;;20.05;;
15454;SDS011;21057;51.024;7.540;2023-04-03T13:44:27;22.07;;;20.57;;
15454;SDS011;21057;51.024;7.540;2023-04-03T13:46:58;21.47;;;20.07;;
15454;SDS011;21057;51.024;7.540;2023-04-03T13:49:31;21.93;;;20.43;;
15454;SDS011;21057;51.024;7.540;2023-04-03T13:52:01;21.40;;;20.00;;
15454;SDS011;21057;51.024;7.540;2023-04-03T13:54:31;20.63;;;19.33;;
15454;SDS011;21057;51.024;7.540;2023-04-03T13:56:59;22.00;;;20.40;;
15454;SDS011;21057;51.024;7.540;2023-04-03T13:59:28;21.73;;;20.30;;
15454;SDS011;21057;51.024;7.540;2023-04-03T14:02:12;21.83;;;20.43;;
15454;SDS011;21057;51.024;7.540;2023-04-03T14:04:46;21.40;;;20.10;;
15454;SDS011;21057;51.024;7.540;2023-04-03T14:07:21;21.37;;;19.97;;
15454;SDS011;21057;51.024;7.540;2023-04-03T14:09:51;20.97;;;19.40;;
15454;SDS011;21057;51.024;7.540;2023-04-03T14:14:51;20.73;;;19.33;;
15454;SDS011;21057;51.024;7.540;2023-04-03T14:20:05;21.13;;;19.80;;
15454;SDS011;21057;51.024;7.540;2023-04-03T14:22:32;20.77;;;19.47;;
15454;SDS011;21057;51.024;7.540;2023-04-03T14:25:00;21.57;;;20.07;;
15454;SDS011;21057;51.024;7.540;2023-04-03T14:27:28;20.27;;;18.97;;
15454;SDS011;21057;51.024;7.540;2023-04-03T14:30:04;20.70;;;19.30;;
15454;SDS011;21057;51.024;7.540;2023-04-03T14:32:37;20.17;;;18.87;;
15454;SDS011;21057;51.024;7.540;2023-04-03T14:35:04;20.30;;;19.00;;
15454;SDS011;21057;51.024;7.540;2023-04-03T14:37:31;20.83;;;19.50;;
15454;SDS011;21057;51.024;7.540;2023-04-03T14:40:00;20.37;;;19.07;;
15454;SDS011;21057;51.024;7.540;2023-04-03T14:42:29;20.47;;;18.87;;
15454;SDS011;21057;51.024;7.540;2023-04-03T14:44:57;21.33;;;19.93;;
15454;SDS011;21057;51.024;7.540;2023-04-03T14:47:26;21.27;;;19.80;;
15454;SDS011;21057;51.024;7.540;2023-04-03T14:49:56;20.73;;;19.43;;
15454;SDS011;21057;51.024;7.540;2023-04-03T14:52:32;20.80;;;19.40;;
15454;SDS011;21057;51.024;7.540;2023-04-03T14:55:02;20.77;;;19.47;;
15454;SDS011;21057;51.024;7.540;2023-04-03T14:57:31;20.90;;;19.50;;
15454;SDS011;21057;51.024;7.540;2023-04-03T15:02:37;20.83;;;19.53;;
15454;SDS011;21057;51.024;7.540;2023-04-03T15:05:07;20.83;;;19.50;;
15454;SDS011;21057;51.024;7.540;2023-04-03T15:07:37;19.90;;;18.60;;
15454;SDS011;21057;51.024;7.540;2023-04-03T15:10:14;20.27;;;18.97;;
15454;SDS011;21057;51.024;7.540;2023-04-03T15:12:55;21.10;;;19.50;;
15454;SDS011;21057;51.024;7.540;2023-04-03T15:15:22;20.53;;;19.23;;
15454;SDS011;21057;51.024;7.540;2023-04-03T15:17:51;21.67;;;20.17;;
15454;SDS011;21057;51.024;7.540;2023-04-03T15:20:21;21.43;;;19.90;;
15454;SDS011;21057;51.024;7.540;2023-04-03T15:22:49;21.37;;;19.97;;
15454;SDS011;21057;51.024;7.540;2023-04-03T15:25:25;21.53;;;20.13;;
15454;SDS011;21057;51.024;7.540;2023-04-03T15:27:53;20.93;;;19.47;;
15454;SDS011;21057;51.024;7.540;2023-04-03T15:30:22;20.40;;;19.10;;
15454;SDS011;21057;51.024;7.540;2023-04-03T15:32:51;20.70;;;19.30;;
15454;SDS011;21057;51.024;7.540;2023-04-03T15:35:21;21.30;;;19.70;;
15454;SDS011;21057;51.024;7.540;2023-04-03T15:37:50;20.33;;;19.03;;
15454;SDS011;21057;51.024;7.540;2023-04-03T15:40:18;20.63;;;19.17;;
15454;SDS011;21057;51.024;7.540;2023-04-03T15:42:46;20.17;;;18.87;;
15454;SDS011;21057;51.024;7.540;2023-04-03T15:47:56;20.50;;;19.20;;
15454;SDS011;21057;51.024;7.540;2023-04-03T15:50:26;20.80;;;19.50;;
15454;SDS011;21057;51.024;7.540;2023-04-03T15:52:53;20.73;;;19.33;;
15454;SDS011;21057;51.024;7.540;2023-04-03T15:55:21;21.60;;;20.10;;
15454;SDS011;21057;51.024;7.540;2023-04-03T15:57:48;20.87;;;19.57;;
15454;SDS011;21057;51.024;7.540;2023-04-03T16:00:22;20.97;;;19.67;;
15454;SDS011;21057;51.024;7.540;2023-04-03T16:03:04;20.83;;;19.53;;
15454;SDS011;21057;51.024;7.540;2023-04-03T16:05:48;20.07;;;18.77;;
15454;SDS011;21057;51.024;7.540;2023-04-03T16:08:17;20.20;;;18.90;;
15454;SDS011;21057;51.024;7.540;2023-04-03T16:10:45;20.40;;;18.77;;
15454;SDS011;21057;51.024;7.540;2023-04-03T16:13:12;19.70;;;18.50;;
15454;SDS011;21057;51.024;7.540;2023-04-03T16:15:46;19.83;;;18.63;;